Terminal Aerodrome Forecast
Issued by NWS

Home | Current Version | Previous Version | Graphics & Text | Print | Product List | Glossary On
Versions: 1 2 3 4 5 6 7 8 9 10 11 12
775
FTUS43 KMPX 151720
TAFRWF
TAF
KRWF 151720Z 1518/1618 32018G27KT 3SM BLSN OVC015
     FM152200 32017G25KT 3SM -SN BLSN OVC015
     FM160500 32012G18KT P6SM BKN025
     FM161000 32010KT P6SM SCT015 SCT200=

USA.gov is the U.S. government's official web portal to all federal, state and local government web resources and services.